WEATHER DATA

YESTERDAY
Time Temp. Dewp. Hum. Wind dir Wind speed Wind gust Bar.
00:03 1.1 -2.2 77 0 0 1014.9
00:13 0.9 -2.2 78 0 0 1014.9
00:23 0.8 -2.1 79 0 0 1014.9
00:33 0.8 -2.1 79 0 0 1014.8
00:43 0.9 -1.9 80 0 0 1014.8
00:53 1 -1.8 80 0 0 1014.7
01:04 1.1 -1.7 80 0 0 1014.6
01:13 1.1 -1.7 80 0 0 1014.6
01:23 1.1 -1.7 80 0 0 1014.5
01:34 1.2 -1.5 81 0 0 1014.5
01:44 1.4 -1.3 81 0 0 1014.4
01:53 1.5 -1.2 81 0 0 1014.3
02:03 1.6 -1.1 81 0 0 1014.4
02:14 1.7 -1.1 81 0 0 1014.4
02:24 1.8 -1 81 0 0 1014.4
02:33 1.9 -0.9 81 0 0 1014.3
02:44 2 -0.8 81 0 0 1014.2
02:54 2.1 -0.7 81 0 0 1014.1
03:04 2.3 -0.5 81 0 0 1014
03:14 2.4 -0.5 81 0 0 1014
03:24 2.5 -0.4 81 0 0 1013.9
03:34 2.6 -0.3 81 0 0 1013.8
03:44 2.6 -0.3 81 0 0 1013.7
03:54 2.6 -0.3 81 0 0 1013.7
04:04 2.7 -0.2 81 0 0 1013.6
04:14 2.8 -0.1 81 0 0 1013.5
04:24 2.9 0 81 0 0 1013.4
04:35 2.9 0 81 0 0 1013.4
04:44 2.9 0 81 0 0 1013.2
04:54 3 0.1 81 0 0 1013.2
05:05 2.9 0 81 0 0 1013.2
05:15 2.9 0 81 0 0 1013.1
05:25 2.9 0 81 0 0 1013.1
05:34 2.8 -0.1 81 0 0 1013.1
05:45 2.7 -0.2 81 0 0 1013
05:55 2.6 -0.3 81 0 0 1012.9
06:05 2.5 -0.4 81 0 0 1012.8
06:15 2.4 -0.5 81 0 0 1012.8
06:25 2.3 -0.5 81 0 0 1012.7
06:35 2.3 -0.5 81 0 0 1012.7
06:45 2.3 -0.5 81 0 0 1012.6
06:55 2.3 -0.5 81 0 0 1012.6
07:05 2.3 -0.5 81 0 0 1012.7
07:15 2.4 -0.5 81 0 0 1012.4
07:26 2.4 -0.5 81 0 0 1012.4
07:35 2.4 -0.3 82 0 0 1012.4
07:45 2.5 -0.2 82 0 0 1012.4
07:55 2.5 -0.2 82 0 0 1012.3
08:06 2.6 -0.1 82 0 0 1012.6
08:15 2.6 -0.1 82 0 0 1012.4
08:25 2.8 0 82 0 0 1012.3
08:36 2.9 0.1 82 0 0 1012.4
08:46 3.1 0.3 82 0 0 1012.4
08:55 3.3 0.5 82 0 0 1012.4
09:06 3.5 0.7 82 0 0 1012.6
09:16 3.8 0.8 81 0 0 1012.6
09:26 4.1 1.1 81 0 0 1012.4
09:35 4.3 1.3 81 0 0 1012.6
09:46 4.6 1.5 80 0 0 1012.6
09:56 4.8 1.6 80 0 0 1012.4
10:06 4.9 1.7 80 0 0 1012.4
10:16 5.2 2 80 0 0 1012.4
10:26 5.4 2.2 80 0 0 1012.3
10:36 5.6 2.3 79 0 0 1012.3
10:46 5.7 2.3 79 0 0 1012
10:57 5.8 2.4 79 0 0 1011.9
11:06 5.9 2.5 79 0 0 1011.8
11:16 6.1 2.7 79 0 0 1011.6
11:27 6.2 2.7 78 0 0 1011.6
11:37 6.3 2.8 78 0 0 1011.4
11:46 6.3 2.8 78 0 0 1011.4
11:56 6.3 2.8 78 0 0 1011.1
12:07 6.3 2.8 78 0 0 1011
12:17 6.3 2.8 78 0 0 1010.9
12:26 6.3 2.6 77 0 0 1010.8
12:37 6.3 2.8 78 0 0 1010.7
12:47 6.3 2.6 77 0 0 1010.6
12:57 6.3 2.6 77 0 0 1010.5
13:07 6.4 2.8 78 0 0 1010.6
13:17 6.4 2.8 78 0 0 1010.5
13:27 6.4 2.8 78 0 0 1010.4
13:37 6.4 2.7 77 0 0 1010.4
13:48 6.4 2.7 77 0 0 1010.3
13:57 6.3 2.6 77 0 0 1010.4
14:07 6.3 2.6 77 0 0 1010.2
14:17 6.2 2.7 78 0 0 1010.2
14:28 6.2 2.7 78 0 0 1010.2
14:37 6.1 2.6 78 0 0 1010.2
14:47 6 2.5 78 0 0 1010.1
14:58 5.9 2.4 78 0 0 1010.2
15:08 5.8 2.3 78 0 0 1010.3
15:17 5.7 2.2 78 0 0 1010.3
15:27 5.7 2.2 78 0 0 1010.2
15:38 5.6 2.3 79 0 0 1010.2
15:48 5.6 2.3 79 0 0 1010.2
15:57 5.5 2.2 79 0 0 1010.3
16:08 5.5 2.2 79 0 0 1010.3
16:18 5.5 2.2 79 0 0 1010.4
16:28 5.5 2.2 79 0 0 1010.4
16:38 5.5 2.2 79 0 0 1010.3
16:48 5.5 2.2 79 0 0 1010.3
16:58 5.4 2.1 79 0 0 1010.3
17:08 5.4 2.1 79 0 0 1010.4
17:19 5.4 2.1 79 0 0 1010.4
17:28 5.4 2.2 80 0 0 1010.4
17:38 5.4 2.2 80 0 0 1010.4
17:48 5.4 2.2 80 0 0 1010.3
17:59 5.4 2.2 80 0 0 1010.3
18:08 5.4 2.2 80 0 0 1010.3
18:18 5.3 2.1 80 0 0 1010.3
18:29 5.3 2.1 80 0 0 1010.4
18:39 5.2 2 80 0 0 1010.4
18:48 5.2 2 80 0 0 1010.3
18:59 5.2 2 80 0 0 1010.2
19:09 5.2 2 80 0 0 1010
19:19 5.2 2 80 0 0 1010
19:29 5.2 2 80 0 0 1009.9
19:39 5.1 1.9 80 0 0 1009.9
19:49 5.1 1.9 80 0 0 1010
19:59 5.1 2.1 81 0 0 1010
20:09 5.1 1.9 80 0 0 1010.1
20:19 5.1 2.1 81 0 0 1010.1
20:29 5.1 2.1 81 0 0 1010.1
20:39 5.1 2.1 81 0 0 1010.1
20:50 5.1 2.1 81 0 0 1010.1
21:00 5 2 81 0 0 1010
21:09 5 2 81 0 0 1010
21:20 4.9 1.9 81 0 0 1010
21:30 4.9 1.9 81 0 0 1009.9
21:40 4.9 1.9 81 0 0 1010.1
21:49 5 2 81 0 0 1010
22:00 4.9 1.9 81 0 0 1010
22:10 5 2 81 0 0 1010
22:20 4.9 1.9 81 0 0 1009.9
22:30 4.9 1.9 81 0 0 1009.9
22:40 4.9 1.9 81 0 0 1009.8
22:50 4.9 1.9 81 0 0 1009.8
23:00 4.9 1.9 81 0 0 1009.9
23:11 4.9 1.9 81 0 0 1009.9
23:20 4.9 1.9 81 0 0 1009.8
23:30 4.8 1.8 81 0 0 1009.8
23:41 4.8 1.8 81 0 0 1009.9
23:51 4.7 1.7 81 0 0 1009.8

DAY STATISTIC

2022-12-08
TEMPERATURE
AVERAGE
4.2
HIGH
6.4
13:07
LOW
0.8
00:23
PRESSURE
AVERAGE
1011.7
HIGH
1014.9
00:03
LOW
1009.8
22:40
DEWPOINT
AVERAGE
1.1
HIGH
2.8
11:37
LOW
-2.2
00:03
HUMIDITY
AVERAGE
80
HIGH
82
07:35
LOW
77
00:03
WIND SPEED
AVERAGE
0.0
HIGH
0.0
02:53
WIND GUST
AVERAGE
0.0
HIGH
0.0
02:53
WIND DIRECTION
PREVAILING
%
TEMPERATURE (°C)
LOW
0.8
HIGH
6.4
AVERAGE
4.2
PRESSURE (hpa)
LOW
1009.8
HIGH
1014.9
AVERAGE
1011.7
DEVICE